Time;durP1;ratioP1;P1;durP2;ratioP2;P2;SDS_P1;SDS_P2;PMS_P1;PMS_P2;Temp;Humidity;BMP_temperature;BMP_pressure;BME280_temperature;BME280_humidity;BME280_pressure;Samples;Min_cycle;Max_cycle;Signal;HPM_P1;HPM_P2
2023/02/07 00:00:30;;;;;;;115.38;27.33;;;-0.10;99.90;;;;;;5053695;28;20024;-72
2023/02/07 00:02:56;;;;;;;151.80;32.42;;;-0.10;99.90;;;;;;5053875;28;20020;-72
2023/02/07 00:05:22;;;;;;;97.60;29.83;;;-0.10;99.90;;;;;;5053637;28;20021;-73
2023/02/07 00:07:47;;;;;;;116.63;29.20;;;-0.10;99.90;;;;;;5053967;28;20024;-73
2023/02/07 00:10:15;;;;;;;97.15;29.30;;;-0.20;99.90;;;;;;5053627;28;20029;-73
2023/02/07 00:12:41;;;;;;;127.15;27.95;;;-0.10;99.90;;;;;;5053375;28;20076;-72
2023/02/07 00:15:07;;;;;;;121.25;31.48;;;-0.10;99.90;;;;;;5054107;28;20506;-73
2023/02/07 00:17:33;;;;;;;140.05;31.45;;;-0.10;99.90;;;;;;5053569;28;20031;-72
2023/02/07 00:19:58;;;;;;;167.15;34.80;;;-0.10;99.90;;;;;;5053684;28;20021;-73
2023/02/07 00:22:24;;;;;;;89.90;30.67;;;-0.10;99.90;;;;;;5053199;28;20179;-73
2023/02/07 00:24:49;;;;;;;88.93;31.40;;;-0.10;99.90;;;;;;5053686;28;20035;-72
2023/02/07 00:27:15;;;;;;;101.32;32.35;;;-0.10;99.90;;;;;;5053481;28;20025;-73
2023/02/07 00:29:40;;;;;;;108.85;32.75;;;-0.10;99.90;;;;;;5053719;28;20156;-72
2023/02/07 00:32:07;;;;;;;92.05;32.78;;;-0.10;99.90;;;;;;5053212;28;20474;-73
2023/02/07 00:34:35;;;;;;;85.10;32.30;;;-0.10;99.90;;;;;;5053670;28;20078;-72
2023/02/07 00:37:01;;;;;;;111.00;33.08;;;0.00;99.90;;;;;;5052799;28;20552;-73
2023/02/07 00:39:26;;;;;;;97.55;34.35;;;0.00;99.90;;;;;;5050872;28;20025;-73
2023/02/07 00:41:52;;;;;;;92.07;33.50;;;-0.10;99.90;;;;;;5033502;28;20091;-73
2023/02/07 00:44:18;;;;;;;112.88;33.70;;;-0.10;99.90;;;;;;5033068;28;20029;-73
2023/02/07 00:46:44;;;;;;;83.05;33.70;;;-0.10;99.90;;;;;;5041244;28;20028;-72
2023/02/07 00:49:09;;;;;;;129.38;32.85;;;-0.10;99.90;;;;;;5053398;28;20021;-73
2023/02/07 00:51:35;;;;;;;143.68;36.47;;;-0.10;99.90;;;;;;5052959;28;20033;-72
2023/02/07 00:54:01;;;;;;;253.40;37.13;;;-0.10;99.90;;;;;;5053144;28;20485;-72
2023/02/07 00:56:28;;;;;;;167.20;34.22;;;-0.20;99.90;;;;;;5053099;28;20346;-73
2023/02/07 00:58:54;;;;;;;96.50;33.70;;;-0.10;99.90;;;;;;5053943;28;20104;-73
2023/02/07 01:01:21;;;;;;;211.82;36.15;;;-0.20;99.90;;;;;;5052968;28;20118;-73
2023/02/07 01:03:46;;;;;;;243.43;39.03;;;-0.10;99.90;;;;;;5052902;28;20032;-72
2023/02/07 01:06:12;;;;;;;178.70;39.90;;;-0.10;99.90;;;;;;5052648;28;20025;-73
2023/02/07 01:08:38;;;;;;;194.65;38.38;;;-0.10;99.90;;;;;;5051674;28;20021;-73
2023/02/07 01:11:06;;;;;;;101.70;34.58;;;-0.10;99.90;;;;;;5053182;28;20036;-73
2023/02/07 01:13:32;;;;;;;88.38;32.95;;;-0.20;99.90;;;;;;5052725;28;20025;-73
2023/02/07 01:15:58;;;;;;;123.75;38.15;;;-0.20;99.90;;;;;;5053172;28;20537;-72
2023/02/07 01:18:23;;;;;;;99.03;36.42;;;-0.20;99.90;;;;;;5052628;28;20028;-73
2023/02/07 01:20:49;;;;;;;122.18;39.88;;;-0.20;99.90;;;;;;5053035;28;20063;-73
2023/02/07 01:23:14;;;;;;;114.53;39.63;;;-0.20;99.90;;;;;;5051636;28;20028;-73
2023/02/07 01:25:42;;;;;;;125.57;37.55;;;-0.20;99.90;;;;;;5054592;28;20025;-73
2023/02/07 01:28:08;;;;;;;150.90;40.90;;;-0.20;99.90;;;;;;5056780;28;20087;-73
2023/02/07 01:30:34;;;;;;;104.15;39.05;;;-0.10;99.90;;;;;;5057242;28;20025;-73
2023/02/07 01:33:00;;;;;;;223.93;45.72;;;-0.10;99.90;;;;;;5056437;28;20033;-73
2023/02/07 01:35:28;;;;;;;139.13;42.10;;;-0.10;99.90;;;;;;5056866;28;20102;-72
2023/02/07 01:37:54;;;;;;;112.38;40.60;;;-0.10;99.90;;;;;;5056661;28;20025;-73
2023/02/07 01:40:20;;;;;;;125.65;42.03;;;-0.10;99.90;;;;;;5056584;28;20075;-73
2023/02/07 01:42:45;;;;;;;126.95;45.53;;;-0.10;99.90;;;;;;5078009;22;20060;-68
2023/02/07 01:45:33;;;;;;;135.23;41.88;;;-0.10;99.90;;;;;;5036226;28;20394;-68
2023/02/07 01:48:11;;;;;;;135.35;40.63;;;-0.10;99.90;;;;;;5036434;28;20482;-68
2023/02/07 01:50:38;;;;;;;145.52;46.10;;;-0.10;99.90;;;;;;5036692;28;20030;-68
2023/02/07 01:53:06;;;;;;;134.38;46.28;;;0.00;99.90;;;;;;5036072;28;20017;-68
2023/02/07 01:55:35;;;;;;;136.43;46.58;;;0.00;99.90;;;;;;5036096;28;20021;-68
2023/02/07 01:58:03;;;;;;;134.25;42.92;;;0.00;99.90;;;;;;5036167;28;20100;-68
2023/02/07 02:00:28;;;;;;;146.82;45.70;;;0.00;99.90;;;;;;5036233;28;20046;-68
2023/02/07 02:02:55;;;;;;;126.45;43.38;;;0.00;99.90;;;;;;5036103;28;20032;-68
2023/02/07 02:05:22;;;;;;;145.13;43.53;;;0.00;99.90;;;;;;5035960;28;20175;-68
2023/02/07 02:07:48;;;;;;;132.73;42.50;;;-0.10;99.90;;;;;;5035983;28;20021;-68
2023/02/07 02:10:16;;;;;;;166.43;44.75;;;-0.10;99.90;;;;;;5035869;28;20021;-68
2023/02/07 02:12:54;;;;;;;145.43;43.90;;;-0.10;99.90;;;;;;5035600;28;20052;-69
2023/02/07 02:15:31;;;;;;;276.33;48.40;;;-0.20;99.90;;;;;;5035962;28;20018;-69
2023/02/07 02:18:18;;;;;;;182.55;44.08;;;-0.20;99.90;;;;;;5035681;28;20022;-69
2023/02/07 02:21:08;;;;;;;210.55;44.05;;;-0.20;99.90;;;;;;5035634;28;20025;-68
2023/02/07 02:24:04;;;;;;;159.88;44.92;;;-0.20;99.90;;;;;;5035800;28;20028;-68
2023/02/07 02:26:41;;;;;;;274.85;47.95;;;-0.30;99.90;;;;;;5036182;28;20425;-68
2023/02/07 02:29:30;;;;;;;167.25;43.58;;;-0.20;99.90;;;;;;5035820;28;20105;-68
2023/02/07 02:32:34;;;;;;;171.15;42.92;;;-0.20;99.90;;;;;;5035599;28;20049;-68
2023/02/07 02:35:11;;;;;;;192.73;45.10;;;-0.20;99.90;;;;;;5035656;28;20049;-68
2023/02/07 02:37:54;;;;;;;221.05;49.78;;;-0.10;99.90;;;;;;5035264;28;20029;-68
2023/02/07 02:40:39;;;;;;;170.17;45.70;;;-0.20;99.90;;;;;;5035404;28;20021;-68
2023/02/07 02:43:13;;;;;;;214.15;48.97;;;-0.20;99.90;;;;;;5024354;28;20045;-68
2023/02/07 02:45:41;;;;;;;;;;;-0.10;99.90;;;;;;5035921;28;20040;-68
2023/02/07 02:48:09;;;;;;;212.15;49.45;;;-0.10;99.90;;;;;;5035055;28;19943;-69
2023/02/07 02:50:36;;;;;;;169.73;50.63;;;-0.10;99.90;;;;;;5035242;28;20025;-69
2023/02/07 02:53:01;;;;;;;148.90;46.47;;;0.00;99.90;;;;;;5034873;28;20187;-69
2023/02/07 02:56:03;;;;;;;181.98;50.83;;;0.00;99.90;;;;;;5035225;28;20049;-69
2023/02/07 02:58:36;;;;;;;190.70;50.72;;;0.00;99.90;;;;;;5035020;28;20109;-68
2023/02/07 03:01:23;;;;;;;153.73;47.22;;;0.00;99.90;;;;;;5035026;28;20060;-68
2023/02/07 03:04:26;;;;;;;168.65;47.90;;;0.00;99.90;;;;;;5034746;28;20446;-68
2023/02/07 03:07:30;;;;;;;163.70;48.08;;;0.00;99.90;;;;;;4985045;28;20038;-68
2023/02/07 03:10:06;;;;;;;146.00;46.83;;;0.00;99.90;;;;;;5035083;28;20029;-68
2023/02/07 03:12:49;;;;;;;132.80;43.92;;;0.00;99.90;;;;;;5035257;28;20371;-68
2023/02/07 03:15:31;;;;;;;128.88;44.78;;;0.00;99.90;;;;;;5035252;28;20025;-68
2023/02/07 03:18:08;;;;;;;133.15;43.45;;;0.00;99.90;;;;;;5035000;28;20033;-68
2023/02/07 03:20:58;;;;;;;165.00;44.58;;;0.00;99.90;;;;;;5035112;28;20033;-68
2023/02/07 03:23:25;;;;;;;165.98;45.92;;;0.00;99.90;;;;;;5035027;28;20052;-68
2023/02/07 03:25:51;;;;;;;119.07;41.72;;;-0.10;99.90;;;;;;5034895;28;20029;-68
2023/02/07 03:28:19;;;;;;;117.68;43.47;;;-0.10;99.90;;;;;;5034705;28;20029;-68
2023/02/07 03:30:49;;;;;;;158.85;42.17;;;-0.10;99.90;;;;;;5034560;28;20365;-69
2023/02/07 03:33:15;;;;;;;134.25;39.38;;;-0.20;99.90;;;;;;5034475;28;20037;-69
2023/02/07 03:36:05;;;;;;;303.48;47.17;;;-0.30;99.90;;;;;;5034871;28;20100;-69
2023/02/07 03:38:31;;;;;;;154.02;41.05;;;-0.50;99.90;;;;;;5034836;28;20024;-69
2023/02/07 03:41:01;;;;;;;98.68;38.60;;;-0.50;99.90;;;;;;5034499;28;20036;-69
2023/02/07 03:43:30;;;;;;;176.77;41.50;;;-0.60;99.90;;;;;;5034408;28;20033;-69
2023/02/07 03:45:57;;;;;;;139.40;40.45;;;-0.60;99.90;;;;;;5034664;28;20059;-69
2023/02/07 03:48:23;;;;;;;92.25;34.58;;;-0.60;99.90;;;;;;5034010;28;20104;-69
2023/02/07 03:50:50;;;;;;;85.40;34.78;;;-0.60;99.90;;;;;;5034208;28;20022;-69
2023/02/07 03:53:16;;;;;;;73.60;34.60;;;-0.70;99.90;;;;;;5034185;28;20035;-69
2023/02/07 03:55:42;;;;;;;139.45;36.35;;;-0.70;99.90;;;;;;5034446;28;20026;-69
2023/02/07 03:58:08;;;;;;;74.18;32.45;;;-0.80;99.90;;;;;;5034617;28;20072;-69
2023/02/07 04:00:34;;;;;;;69.50;31.85;;;-0.80;99.90;;;;;;5034087;28;20029;-69
2023/02/07 04:03:00;;;;;;;71.40;32.03;;;-0.80;99.90;;;;;;5033987;28;20040;-69
2023/02/07 04:05:26;;;;;;;90.78;30.50;;;-0.90;99.90;;;;;;5033992;28;20075;-68
2023/02/07 04:07:52;;;;;;;80.53;32.55;;;-0.90;99.90;;;;;;5034264;28;20030;-69
2023/02/07 04:10:18;;;;;;;66.10;29.85;;;-1.00;99.90;;;;;;5033817;28;20026;-69
2023/02/07 04:12:43;;;;;;;86.15;31.83;;;-1.00;99.90;;;;;;5034059;28;20018;-69
2023/02/07 04:15:09;;;;;;;70.53;30.58;;;-1.10;99.90;;;;;;5034034;28;20022;-69
2023/02/07 04:17:35;;;;;;;90.25;30.83;;;-1.20;99.90;;;;;;5034121;28;20486;-69
2023/02/07 04:20:01;;;;;;;58.47;28.50;;;-1.30;99.90;;;;;;5033713;28;20030;-69
2023/02/07 04:22:27;;;;;;;68.65;31.02;;;-1.40;99.90;;;;;;5033727;28;20494;-69
2023/02/07 04:24:53;;;;;;;80.70;34.65;;;-1.50;99.90;;;;;;5033584;28;20399;-69
2023/02/07 04:27:18;;;;;;;70.05;31.73;;;-1.60;99.90;;;;;;5033906;28;20028;-69
2023/02/07 04:29:44;;;;;;;72.20;30.15;;;-1.70;99.90;;;;;;5033799;28;20033;-69
2023/02/07 04:32:09;;;;;;;68.03;31.50;;;-1.80;99.90;;;;;;5033817;28;20021;-69
2023/02/07 04:34:35;;;;;;;69.18;30.20;;;-1.80;99.90;;;;;;5033471;28;20030;-69
2023/02/07 04:37:00;;;;;;;64.45;28.60;;;-1.90;99.90;;;;;;5033749;28;20136;-69
2023/02/07 04:39:26;;;;;;;71.60;30.10;;;-2.00;99.90;;;;;;5033733;28;20021;-69
2023/02/07 04:41:51;;;;;;;57.72;26.73;;;-2.00;99.90;;;;;;5033428;28;20519;-69
2023/02/07 04:44:17;;;;;;;58.30;26.60;;;-2.10;99.90;;;;;;5033229;28;20075;-69
2023/02/07 04:46:43;;;;;;;58.53;25.75;;;-2.10;99.90;;;;;;5033930;28;20108;-69
2023/02/07 04:49:08;;;;;;;64.03;29.23;;;-2.10;99.90;;;;;;5033891;28;20105;-69
2023/02/07 04:51:34;;;;;;;58.33;26.92;;;-2.20;99.90;;;;;;5033487;28;20450;-69
2023/02/07 04:53:59;;;;;;;57.22;27.45;;;-2.20;99.90;;;;;;5033230;28;20021;-69
2023/02/07 04:56:25;;;;;;;64.28;27.45;;;-2.30;99.90;;;;;;5033237;28;20017;-69
2023/02/07 04:58:50;;;;;;;61.22;25.63;;;-2.30;99.90;;;;;;5032981;28;20036;-69
2023/02/07 05:01:16;;;;;;;57.10;26.35;;;-2.40;99.90;;;;;;5032498;28;20111;-68
2023/02/07 05:03:41;;;;;;;52.50;25.85;;;-2.40;99.90;;;;;;5033119;28;20069;-68
2023/02/07 05:06:07;;;;;;;53.83;25.55;;;-2.50;99.90;;;;;;5033174;28;20079;-68
2023/02/07 05:08:34;;;;;;;54.13;25.30;;;-2.50;99.90;;;;;;5033151;28;20037;-68
2023/02/07 05:11:00;;;;;;;54.80;25.15;;;-2.50;99.90;;;;;;5033051;28;20029;-69
2023/02/07 05:13:26;;;;;;;60.78;26.35;;;-2.60;99.90;;;;;;5033061;28;20040;-69
2023/02/07 05:15:51;;;;;;;55.22;26.67;;;-2.60;99.90;;;;;;5033063;28;20471;-68
2023/02/07 05:18:17;;;;;;;54.53;26.38;;;-2.60;99.90;;;;;;5033315;28;20045;-68
2023/02/07 05:20:42;;;;;;;69.55;27.75;;;-2.60;99.90;;;;;;5033016;28;20025;-68
2023/02/07 05:23:08;;;;;;;51.95;25.25;;;-2.60;99.90;;;;;;5032984;28;20026;-68
2023/02/07 05:25:34;;;;;;;52.08;26.10;;;-2.60;99.90;;;;;;5032985;28;20030;-69
2023/02/07 05:27:59;;;;;;;60.20;27.77;;;-2.70;99.90;;;;;;5033257;28;20459;-69
2023/02/07 05:30:25;;;;;;;68.03;27.70;;;-2.70;99.90;;;;;;5015207;28;20088;-69
2023/02/07 05:33:02;;;;;;;58.70;26.13;;;-2.70;99.90;;;;;;5032896;28;20026;-69
2023/02/07 05:35:37;;;;;;;52.60;25.92;;;-2.70;99.90;;;;;;5033774;28;20067;-69
2023/02/07 05:38:05;;;;;;;58.95;26.08;;;-2.70;99.90;;;;;;5032861;28;20080;-68
2023/02/07 05:40:31;;;;;;;53.65;25.10;;;-2.70;99.90;;;;;;5032807;28;20108;-68
2023/02/07 05:42:56;;;;;;;53.03;26.75;;;-2.70;99.90;;;;;;5032658;28;20064;-68
2023/02/07 05:45:22;;;;;;;67.65;26.73;;;-2.70;99.90;;;;;;5032863;28;20391;-68
2023/02/07 05:47:48;;;;;;;66.55;27.90;;;-2.70;99.90;;;;;;5032833;28;20077;-68
2023/02/07 05:50:14;;;;;;;59.72;28.02;;;-2.60;99.90;;;;;;5032696;28;20474;-68
2023/02/07 05:52:39;;;;;;;62.67;28.25;;;-2.50;99.90;;;;;;5032815;28;20549;-68
2023/02/07 05:55:05;;;;;;;63.65;26.10;;;-2.50;99.90;;;;;;5032938;28;20103;-69
2023/02/07 05:57:31;;;;;;;58.25;25.40;;;-2.50;99.90;;;;;;5032641;28;20549;-69
2023/02/07 05:59:56;;;;;;;53.72;27.15;;;-2.50;99.90;;;;;;5033062;28;20026;-68
2023/02/07 06:02:22;;;;;;;62.67;26.63;;;-2.60;99.90;;;;;;5032663;28;20024;-68
2023/02/07 06:04:48;;;;;;;69.57;29.98;;;-2.60;99.90;;;;;;5033673;28;20033;-68
2023/02/07 06:07:14;;;;;;;65.38;27.67;;;-2.70;99.90;;;;;;5025309;28;20052;-69
2023/02/07 06:09:39;;;;;;;53.13;24.40;;;-2.60;99.90;;;;;;5029379;28;20042;-69
2023/02/07 06:12:05;;;;;;;59.03;25.98;;;-2.70;99.90;;;;;;5035013;28;20034;-68
2023/02/07 06:14:30;;;;;;;61.92;27.17;;;-2.70;99.90;;;;;;5028016;28;20455;-69
2023/02/07 06:16:56;;;;;;;61.92;27.50;;;-2.70;99.90;;;;;;5035482;28;20049;-68
2023/02/07 06:19:21;;;;;;;60.45;27.80;;;-2.70;99.90;;;;;;5031286;28;20026;-69
2023/02/07 06:21:47;;;;;;;58.83;26.35;;;-2.70;99.90;;;;;;5029195;28;20030;-68
2023/02/07 06:24:14;;;;;;;58.17;25.70;;;-2.70;99.90;;;;;;5035729;28;20134;-68
2023/02/07 06:26:40;;;;;;;52.05;26.27;;;-2.70;99.90;;;;;;5035817;28;20083;-68
2023/02/07 06:29:05;;;;;;;57.67;26.55;;;-2.70;99.90;;;;;;5035593;28;20104;-69
2023/02/07 06:31:31;;;;;;;65.03;27.50;;;-2.70;99.90;;;;;;5035720;28;20059;-68
2023/02/07 06:33:56;;;;;;;61.72;26.05;;;-2.70;99.90;;;;;;5035709;28;20025;-68
2023/02/07 06:36:22;;;;;;;55.97;25.50;;;-2.70;99.90;;;;;;5035614;28;20029;-68
2023/02/07 06:38:48;;;;;;;53.72;26.38;;;-2.70;99.90;;;;;;5035891;28;20021;-68
2023/02/07 06:41:13;;;;;;;50.15;24.98;;;-2.70;99.90;;;;;;5035609;28;20026;-69
2023/02/07 06:43:39;;;;;;;53.65;25.55;;;-2.80;99.90;;;;;;5035554;28;20025;-69
2023/02/07 06:46:06;;;;;;;60.13;27.17;;;-2.80;99.90;;;;;;5035518;28;20029;-69
2023/02/07 06:48:32;;;;;;;54.47;27.08;;;-2.90;99.90;;;;;;5035519;28;20442;-68
2023/02/07 06:50:57;;;;;;;70.18;28.08;;;-2.80;99.90;;;;;;5035173;28;20026;-68
2023/02/07 06:53:23;;;;;;;67.78;29.33;;;-2.80;99.90;;;;;;5035298;28;20417;-68
2023/02/07 06:55:49;;;;;;;58.45;29.10;;;-2.70;99.90;;;;;;5035341;28;20025;-68
2023/02/07 06:58:15;;;;;;;63.38;28.85;;;-2.60;99.90;;;;;;5035281;28;20025;-68
2023/02/07 07:00:40;;;;;;;70.07;29.92;;;-2.50;99.90;;;;;;5035191;28;20395;-68
2023/02/07 07:03:06;;;;;;;76.07;31.85;;;-2.50;99.90;;;;;;5035144;28;20093;-68
2023/02/07 07:05:32;;;;;;;82.30;33.08;;;-2.40;99.90;;;;;;5034926;28;20021;-69
2023/02/07 07:07:57;;;;;;;74.25;31.73;;;-2.40;99.90;;;;;;5034954;28;20483;-68
2023/02/07 07:10:23;;;;;;;75.20;33.72;;;-2.30;99.90;;;;;;5034765;28;20061;-68
2023/02/07 07:12:49;;;;;;;82.07;34.10;;;-2.30;99.90;;;;;;5034932;28;20026;-68
2023/02/07 07:15:14;;;;;;;74.53;31.05;;;-2.20;99.90;;;;;;5034870;28;20076;-68
2023/02/07 07:17:40;;;;;;;77.05;32.38;;;-2.20;99.90;;;;;;5035169;28;20534;-68
2023/02/07 07:20:07;;;;;;;82.90;33.78;;;-2.20;99.90;;;;;;5034788;28;20021;-68
2023/02/07 07:22:33;;;;;;;81.82;34.80;;;-2.00;99.90;;;;;;5033839;28;20461;-68
2023/02/07 07:24:59;;;;;;;92.68;34.40;;;-1.90;99.90;;;;;;5034774;28;20026;-68
2023/02/07 07:27:24;;;;;;;87.78;36.67;;;-1.80;99.90;;;;;;5035158;28;20022;-68
2023/02/07 07:29:50;;;;;;;82.68;34.67;;;-1.70;99.90;;;;;;5034589;28;20469;-68
2023/02/07 07:32:16;;;;;;;93.38;34.25;;;-1.70;99.90;;;;;;5034669;28;20541;-68
2023/02/07 07:34:42;;;;;;;90.38;37.17;;;-1.70;99.90;;;;;;5034548;28;20033;-68
2023/02/07 07:37:07;;;;;;;93.82;37.30;;;-1.60;99.90;;;;;;5034561;28;20143;-68
2023/02/07 07:39:33;;;;;;;85.20;34.58;;;-1.60;99.90;;;;;;5034501;28;20502;-68
2023/02/07 07:41:58;;;;;;;85.97;36.60;;;-1.50;99.90;;;;;;5034284;28;20045;-68
2023/02/07 07:44:24;;;;;;;79.28;34.42;;;-1.50;99.90;;;;;;5074509;22;20127;-73
2023/02/07 07:46:50;;;;;;;91.70;39.03;;;-1.40;99.90;;;;;;5034390;28;20176;-74
2023/02/07 07:49:16;;;;;;;76.70;35.95;;;-1.40;99.90;;;;;;5034590;28;20025;-74
2023/02/07 07:51:41;;;;;;;94.00;36.35;;;-1.30;99.90;;;;;;5034435;28;20112;-74
2023/02/07 07:54:07;;;;;;;98.43;37.15;;;-1.20;99.90;;;;;;5035396;28;20025;-74
2023/02/07 07:56:34;;;;;;;97.53;38.25;;;-1.20;99.90;;;;;;5034372;28;20025;-73
2023/02/07 07:59:00;;;;;;;71.95;36.05;;;-1.10;99.90;;;;;;5034379;28;20451;-74
2023/02/07 08:01:26;;;;;;;88.15;38.75;;;-1.00;99.90;;;;;;5034132;28;20108;-74
2023/02/07 08:03:52;;;;;;;92.60;38.72;;;-1.00;99.90;;;;;;5034150;28;20065;-73
2023/02/07 08:06:17;;;;;;;87.72;37.47;;;-0.90;99.90;;;;;;5034013;28;20030;-73
2023/02/07 08:08:43;;;;;;;99.47;39.63;;;-0.80;99.90;;;;;;5034360;28;20437;-73
2023/02/07 08:11:09;;;;;;;90.80;37.70;;;-0.70;99.90;;;;;;5033939;28;20087;-73
2023/02/07 08:13:35;;;;;;;98.93;40.40;;;-0.70;99.90;;;;;;5033941;28;20056;-73
2023/02/07 08:16:02;;;;;;;87.53;36.58;;;-0.60;99.90;;;;;;5033946;28;20052;-74
2023/02/07 08:18:28;;;;;;;85.70;38.80;;;-0.50;99.90;;;;;;5035392;28;20040;-74
2023/02/07 08:20:55;;;;;;;88.10;36.42;;;-0.40;99.90;;;;;;5034393;28;20025;-73
2023/02/07 08:23:21;;;;;;;90.68;38.95;;;-0.30;99.90;;;;;;5034078;28;20033;-74
2023/02/07 08:25:48;;;;;;;92.45;40.35;;;-0.20;99.90;;;;;;5033648;28;20120;-73
2023/02/07 08:28:14;;;;;;;92.45;38.60;;;-0.20;99.90;;;;;;5033650;28;20032;-73
2023/02/07 08:30:40;;;;;;;87.47;37.33;;;-0.10;99.90;;;;;;5033656;28;20022;-74
2023/02/07 08:33:05;;;;;;;79.32;37.53;;;0.00;99.90;;;;;;5033679;28;20021;-74
2023/02/07 08:35:31;;;;;;;85.00;36.50;;;0.00;99.90;;;;;;5033413;28;20403;-74
2023/02/07 08:37:57;;;;;;;92.95;38.33;;;0.10;99.90;;;;;;5033501;28;20464;-73
2023/02/07 08:42:58;;;;;;;81.78;37.97;;;0.20;99.90;;;;;;5987904;22;20048;-71
2023/02/07 08:45:24;;;;;;;82.07;36.00;;;0.20;99.90;;;;;;5033584;28;20407;-71
2023/02/07 08:47:49;;;;;;;81.05;35.80;;;0.30;99.90;;;;;;5034048;28;20419;-71
2023/02/07 08:50:16;;;;;;;77.32;33.15;;;0.40;99.90;;;;;;5033304;28;20040;-71
2023/02/07 08:52:42;;;;;;;74.45;33.85;;;0.40;99.90;;;;;;5033333;28;20155;-71
2023/02/07 08:55:08;;;;;;;78.93;35.63;;;0.40;99.90;;;;;;5033730;28;20057;-71
2023/02/07 08:57:34;;;;;;;72.60;34.47;;;0.50;99.90;;;;;;5033861;28;20539;-70
2023/02/07 09:00:00;;;;;;;79.05;35.70;;;0.50;99.90;;;;;;5033768;28;20064;-70
2023/02/07 09:02:25;;;;;;;77.95;34.35;;;0.60;99.90;;;;;;5033480;28;20479;-70
2023/02/07 09:04:51;;;;;;;66.45;33.13;;;0.70;99.90;;;;;;5033239;28;20406;-71
2023/02/07 09:07:18;;;;;;;70.70;33.15;;;0.80;99.90;;;;;;5033416;28;20080;-71
2023/02/07 09:09:44;;;;;;;73.75;35.63;;;0.90;99.90;;;;;;5033760;28;20105;-72
2023/02/07 09:12:10;;;;;;;74.32;33.28;;;0.90;99.90;;;;;;5034964;28;20112;-72
2023/02/07 09:14:37;;;;;;;71.75;34.28;;;1.00;99.90;;;;;;5033617;28;20021;-72
2023/02/07 09:17:02;;;;;;;74.10;34.28;;;1.00;99.90;;;;;;5033533;28;20036;-71
2023/02/07 09:19:28;;;;;;;81.38;34.63;;;1.10;99.90;;;;;;5033300;28;20088;-72
2023/02/07 09:21:54;;;;;;;61.85;32.15;;;1.10;99.90;;;;;;5033439;28;20022;-71
2023/02/07 09:24:19;;;;;;;87.15;33.88;;;1.20;99.90;;;;;;5033553;28;20029;-71
2023/02/07 09:26:45;;;;;;;74.45;34.00;;;1.20;99.90;;;;;;5027378;28;20124;-71
2023/02/07 09:29:13;;;;;;;68.30;32.70;;;1.20;99.90;;;;;;5027209;28;20491;-71
2023/02/07 09:31:39;;;;;;;71.72;33.35;;;1.30;99.90;;;;;;5035507;28;20033;-71
2023/02/07 09:34:04;;;;;;;74.03;34.70;;;1.30;99.90;;;;;;5019470;28;20382;-70
2023/02/07 09:36:30;;;;;;;64.05;33.38;;;1.30;99.90;;;;;;5026592;28;20028;-70
2023/02/07 09:38:56;;;;;;;61.67;31.90;;;1.30;99.90;;;;;;5028207;28;20033;-71
2023/02/07 09:42:03;;;;;;;64.38;31.17;;;1.40;99.90;;;;;;5026427;28;20025;-71
2023/02/07 09:45:03;;;;;;;69.05;31.90;;;1.40;99.90;;;;;;5024791;28;20029;-70
2023/02/07 09:47:31;;;;;;;59.53;30.83;;;1.50;99.90;;;;;;5025272;28;20449;-71
2023/02/07 09:50:13;;;;;;;52.92;29.60;;;1.40;99.90;;;;;;5030583;28;20028;-70
2023/02/07 09:52:44;;;;;;;63.38;30.42;;;1.50;99.90;;;;;;5027166;28;20391;-71
2023/02/07 09:55:41;;;;;;;64.00;30.95;;;1.50;99.90;;;;;;5035134;28;20018;-71
2023/02/07 09:58:13;;;;;;;53.67;28.27;;;1.70;99.90;;;;;;5014066;28;20030;-71
2023/02/07 10:00:43;;;;;;;66.95;31.25;;;1.80;99.90;;;;;;5030235;28;20017;-71
2023/02/07 10:03:16;;;;;;;57.50;29.77;;;1.80;99.90;;;;;;5026695;28;20588;-71
2023/02/07 10:06:00;;;;;;;58.50;28.73;;;1.80;99.90;;;;;;5031924;28;20445;-70
2023/02/07 10:08:27;;;;;;;53.05;27.58;;;2.00;99.90;;;;;;5028885;28;20045;-70
2023/02/07 10:11:23;;;;;;;49.47;28.15;;;2.00;99.90;;;;;;5033268;28;20021;-70
2023/02/07 10:14:28;;;;;;;54.72;27.55;;;2.00;99.90;;;;;;5030894;28;20052;-70
2023/02/07 10:17:15;;;;;;;60.33;28.63;;;2.00;99.90;;;;;;4996254;28;20045;-70
2023/02/07 10:20:19;;;;;;;51.58;25.00;;;2.10;99.90;;;;;;5032529;28;20033;-70
2023/02/07 10:23:10;;;;;;;46.45;24.42;;;2.10;99.90;;;;;;5027357;28;20030;-70
2023/02/07 10:25:57;;;;;;;45.13;24.73;;;2.10;99.90;;;;;;5032979;28;20045;-70
2023/02/07 10:28:26;;;;;;;41.10;23.92;;;2.20;99.90;;;;;;5031407;28;20395;-70
2023/02/07 10:30:56;;;;;;;41.20;23.48;;;2.30;99.90;;;;;;5030927;28;20037;-70
2023/02/07 10:33:26;;;;;;;42.47;22.02;;;2.30;99.90;;;;;;5028200;28;20036;-70
2023/02/07 10:35:53;;;;;;;43.58;23.05;;;2.20;99.90;;;;;;5021931;28;20022;-70
2023/02/07 10:38:35;;;;;;;39.17;22.67;;;2.40;99.90;;;;;;5032522;28;20025;-71
2023/02/07 10:41:36;;;;;;;42.20;22.20;;;2.40;99.90;;;;;;5030015;28;20033;-70
2023/02/07 10:44:08;;;;;;;42.47;20.90;;;2.40;99.90;;;;;;4994378;28;20049;-70
2023/02/07 10:46:35;;;;;;;38.65;21.23;;;2.40;99.90;;;;;;5012671;28;20029;-71
2023/02/07 10:49:01;;;;;;;49.15;21.60;;;2.50;99.90;;;;;;5028890;28;20026;-70
2023/02/07 10:51:34;;;;;;;38.75;20.13;;;2.60;99.90;;;;;;5030389;28;20117;-71
2023/02/07 10:54:07;;;;;;;32.88;19.27;;;2.70;99.90;;;;;;5024230;28;20030;-71
2023/02/07 10:56:41;;;;;;;33.72;18.95;;;2.70;99.90;;;;;;5035150;28;20021;-71
2023/02/07 10:59:44;;;;;;;35.53;18.98;;;2.90;99.90;;;;;;5031086;28;20035;-71
2023/02/07 11:02:30;;;;;;;41.97;19.30;;;2.90;99.90;;;;;;5033987;28;20029;-71
2023/02/07 11:05:06;;;;;;;31.95;19.35;;;3.10;99.90;;;;;;5023990;28;20041;-70
2023/02/07 11:07:31;;;;;;;36.10;18.30;;;3.00;99.90;;;;;;5034974;28;20076;-70
2023/02/07 11:10:15;;;;;;;31.52;20.23;;;3.10;99.90;;;;;;5034846;28;20029;-70
2023/02/07 11:12:52;;;;;;;34.83;18.35;;;3.10;99.90;;;;;;5023874;28;20108;-70
2023/02/07 11:15:21;;;;;;;35.65;19.10;;;3.30;99.90;;;;;;5034913;28;20017;-70
2023/02/07 11:17:57;;;;;;;33.88;18.50;;;3.30;99.90;;;;;;5034851;28;20072;-71
2023/02/07 11:20:37;;;;;;;35.47;17.67;;;3.40;99.90;;;;;;5034733;28;20484;-71
2023/02/07 11:23:09;;;;;;;32.28;18.33;;;3.30;99.90;;;;;;5034605;28;20108;-71
2023/02/07 11:25:40;;;;;;;37.40;19.00;;;3.30;99.90;;;;;;5034901;28;20061;-71
2023/02/07 11:28:07;;;;;;;36.60;19.25;;;3.30;99.90;;;;;;5034568;28;20033;-71
2023/02/07 11:30:35;;;;;;;31.83;18.80;;;3.40;99.90;;;;;;5034684;28;20021;-71
2023/02/07 11:33:04;;;;;;;38.55;19.60;;;3.40;99.90;;;;;;5034500;28;20013;-71
2023/02/07 11:35:30;;;;;;;28.05;16.48;;;3.40;99.90;;;;;;5035570;28;20553;-71
2023/02/07 11:38:03;;;;;;;30.83;17.63;;;3.40;99.90;;;;;;5035656;28;20025;-71
2023/02/07 11:40:43;;;;;;;29.45;17.95;;;3.50;99.90;;;;;;5034836;28;20052;-71
2023/02/07 11:43:15;;;;;;;31.60;18.63;;;3.50;99.90;;;;;;5034811;28;20472;-71
2023/02/07 11:45:45;;;;;;;32.55;19.58;;;3.70;99.90;;;;;;5034489;28;20026;-71
2023/02/07 11:48:20;;;;;;;31.48;19.05;;;3.70;99.90;;;;;;5034320;28;20036;-71
2023/02/07 11:50:51;;;;;;;34.30;17.92;;;3.70;99.90;;;;;;5016440;28;20053;-71
2023/02/07 11:53:23;;;;;;;36.60;18.00;;;3.80;99.90;;;;;;5034371;28;20475;-71
2023/02/07 11:55:53;;;;;;;30.85;18.23;;;4.00;99.90;;;;;;5034372;28;20026;-71
2023/02/07 11:58:37;;;;;;;41.78;18.20;;;4.10;99.90;;;;;;5034404;28;20058;-71
2023/02/07 12:01:03;;;;;;;;;;;4.10;99.90;;;;;;5034512;28;20025;-71
2023/02/07 12:03:57;;;;;;;38.95;20.30;;;4.00;99.90;;;;;;5033974;28;19905;-71
2023/02/07 12:06:30;;;;;;;32.80;18.33;;;4.10;99.90;;;;;;5007526;28;20492;-71
2023/02/07 12:08:56;;;;;;;41.35;18.33;;;4.10;99.90;;;;;;5033992;28;20104;-71
2023/02/07 12:11:28;;;;;;;37.20;18.40;;;4.10;99.90;;;;;;5033982;28;20471;-71
2023/02/07 12:13:56;;;;;;;34.13;16.83;;;4.50;99.90;;;;;;5034316;28;20029;-71
2023/02/07 12:16:29;;;;;;;31.63;15.77;;;4.60;99.90;;;;;;5033732;28;20464;-71
2023/02/07 12:19:09;;;;;;;32.45;17.45;;;4.60;99.90;;;;;;5033916;28;20048;-71
2023/02/07 12:21:45;;;;;;;31.55;16.98;;;4.80;99.90;;;;;;5033863;28;20549;-71
2023/02/07 12:24:37;;;;;;;30.58;17.52;;;5.00;99.90;;;;;;5034003;28;20030;-71
2023/02/07 12:27:13;;;;;;;30.73;17.05;;;5.00;99.90;;;;;;5034508;28;20033;-72
2023/02/07 12:30:02;;;;;;;30.17;16.98;;;5.00;99.90;;;;;;5016267;28;20028;-71
2023/02/07 12:32:54;;;;;;;34.28;15.27;;;4.90;99.90;;;;;;5033837;28;20045;-71
2023/02/07 12:35:42;;;;;;;27.95;14.68;;;4.80;99.90;;;;;;5033877;28;20415;-71
2023/02/07 12:38:47;;;;;;;26.30;14.27;;;5.00;99.90;;;;;;5033646;28;20013;-71
2023/02/07 12:41:24;;;;;;;24.42;15.57;;;5.00;99.90;;;;;;5033572;28;20096;-71
2023/02/07 12:44:16;;;;;;;27.75;15.23;;;5.00;99.90;;;;;;5033283;28;20065;-71
2023/02/07 12:47:05;;;;;;;26.52;14.32;;;5.00;99.90;;;;;;5022428;28;20040;-71